Inverness, CA

7:42 AM PDT on October 21, 2014 (GMT -0700)
Point Reyes Mesa bluff | Change Station
CLOSE
Current Station
Personal Weather Station
Location: Point Reyes Station, CA
Elevation: 70 ft
Nearby Weather Stations
Active Advisory: Beach Hazard Statement Active Notice: Public Information Statement

Elev 70 ft 38.08 °N, 122.82 °W | Updated 46 seconds ago

Clear
Clear
44.3 °F
Feels Like 44 °F
N
1.0
Wind Variable Wind from East
Gusts 2.0 mph

Today
High -- | Low -- °F
--% Chance of Precip.
Yesterday
High -- | Low -- °F
Precip. -- in
7:26 AM 6:26 PM
Waning Crescent, 5% visible
Pressure 30.14 in
Visibility 8.0 miles
Clouds Overcast 400 ft
Windchill 44 °F
Dew Point 44 °F
Humidity 97%
Rainfall 0.00 in
Snow Depth Not available.
UV 0 out of 12
Pollen 2.30 out of 12
Air Quality Not available.
Flu Activity Sporadic
METAR KO69 211435Z AUTO 00000KT 8SM OVC004 07/07 A3014 RMK AO1

More Conditions Fewer Conditions

Pressure 30.14 in
Visibility 8.0 miles
Clouds Overcast 400 ft
Windchill 44 °F
Dew Point 44 °F
Humidity 97%
Rainfall 0.00 in
Snow Depth Not available.
UV 0 out of 12
Pollen 2.30 out of 12
Air Quality Not available.
Flu Activity Sporadic
METAR KO69 211435Z AUTO 00000KT 8SM OVC004 07/07 A3014 RMK AO1

More Conditions Fewer Conditions

10-Day Weather Forecast

Almanac

Astronomy

Oct. 21, 2014 Rise Set
Actual Time 7:26 AM PDT 6:26 PM PDT
Civil Twilight 6:59 AM PDT 6:52 PM PDT
Nautical Twilight 6:29 AM PDT 7:23 PM PDT
Astronomical Twilight 5:58 AM PDT 7:53 PM PDT
Moon 5:18 AM PDT 5:21 PM PDT
Length of Visible Light 11h 53m
Length of Day
10h 59m
Tomorrow will be 2m 18s shorter.
Waning Crescent, 5% of the Moon is Illuminated
Today
Waning Crescent
Oct 23
New
Oct 30
First Quarter
Nov 6
Full
Nov 14
Last Quarter

Today's Extremes

State Highs State Lows

Community

WunderPhotos

Upload Photos

1,763,678 photos uploaded!

Nearby

Snow Depth

Station Depth Elevation
Ward Creek #3 1 in 6750 ft
CSS Lab 2 in 6900 ft
Echo Peak 2 in 7800 ft
Squaw Valley 1 in 8200 ft
Rubicon #2 1 in 7500 ft

Earthquake Activity

City Distance Mag. Time & Date
East Foothills, California 82 miles 2.6 8:16 AM PDT
2014-10-18
Minimum magnitude displayed is 2.5.

Coastal Water Temperatures

Place Temperature
Point Reyes, CA 60.1 °F
Arena Cove, CA 59.0 °F
San Francisco, CA 63.0 °F
Richmond, CA 64.0 °F

Nearby Weather Stations